createdAt,value
2019-05-09T00:02:33.673Z,1.53
2019-05-09T00:05:03.610Z,2.57
2019-05-09T00:07:33.585Z,1.80
2019-05-09T00:10:00.477Z,2.40
2019-05-09T00:12:28.240Z,4.50
2019-05-09T00:14:56.023Z,1.40
2019-05-09T00:17:23.889Z,2.17
2019-05-09T00:19:53.933Z,1.67
2019-05-09T00:22:23.905Z,2.23
2019-05-09T00:27:16.492Z,2.03
2019-05-09T00:29:45.798Z,3.07
2019-05-09T00:32:21.132Z,1.80
2019-05-09T00:34:59.550Z,2.83
2019-05-09T00:37:45.742Z,2.27
2019-05-09T00:40:13.711Z,2.00
2019-05-09T00:42:43.819Z,3.67
2019-05-09T00:45:28.913Z,2.23
2019-05-09T00:47:56.676Z,2.50
2019-05-09T00:50:24.450Z,2.53
2019-05-09T00:52:53.792Z,2.70
2019-05-09T00:55:24.059Z,1.80
2019-05-09T00:57:53.415Z,2.00
2019-05-09T01:00:24.107Z,1.73
2019-05-09T01:02:51.158Z,2.53
2019-05-09T01:05:19.020Z,1.87
2019-05-09T01:07:46.893Z,2.40
2019-05-09T01:10:14.748Z,2.90
2019-05-09T01:12:43.545Z,2.13
2019-05-09T01:15:13.335Z,1.83
2019-05-09T01:17:41.221Z,2.70
2019-05-09T01:20:09.197Z,2.27
2019-05-09T01:22:37.073Z,2.70
2019-05-09T01:25:05.354Z,3.40
2019-05-09T01:27:33.956Z,2.63
2019-05-09T01:30:04.330Z,2.37
2019-05-09T01:32:38.888Z,3.17
2019-05-09T01:35:06.747Z,2.67
2019-05-09T01:37:34.525Z,1.87
2019-05-09T01:40:04.160Z,2.07
2019-05-09T01:42:33.643Z,3.03
2019-05-09T01:45:03.581Z,2.27
2019-05-09T01:47:30.706Z,1.60
2019-05-09T01:49:58.485Z,1.93
2019-05-09T01:52:26.125Z,2.70
2019-05-09T01:54:54.180Z,1.43
2019-05-09T01:57:23.252Z,1.80
2019-05-09T01:59:53.115Z,1.97
2019-05-09T02:02:20.565Z,1.80
2019-05-09T02:04:48.345Z,1.90
2019-05-09T02:07:16.107Z,1.53
2019-05-09T02:09:43.788Z,2.17
2019-05-09T02:12:11.528Z,2.57
2019-05-09T02:14:40.760Z,1.40
2019-05-09T02:17:10.030Z,1.43
2019-05-09T02:19:39.446Z,1.63
2019-05-09T02:22:08.845Z,1.60
2019-05-09T02:24:36.717Z,1.40
2019-05-09T02:27:04.491Z,1.50
2019-05-09T02:29:33.749Z,1.37
2019-05-09T02:32:04.669Z,2.00
2019-05-09T02:34:31.062Z,1.77
2019-05-09T02:36:58.968Z,1.23
2019-05-09T02:39:29.300Z,1.40
2019-05-09T02:42:04.958Z,1.50
2019-05-09T02:44:28.749Z,1.30
2019-05-09T02:47:02.479Z,1.63
2019-05-09T02:49:30.246Z,1.17
2019-05-09T02:51:59.263Z,1.40
2019-05-09T02:54:29.766Z,1.47
2019-05-09T02:56:58.084Z,1.37
2019-05-09T02:59:33.498Z,1.70
2019-05-09T03:02:11.715Z,1.27
2019-05-09T03:04:39.470Z,1.60
2019-05-09T03:07:09.758Z,0.93
2019-05-09T03:09:38.900Z,1.30
2019-05-09T03:12:22.571Z,2.57
2019-05-09T03:14:38.314Z,1.23
2019-05-09T03:17:05.264Z,1.67
2019-05-09T03:19:33.137Z,0.97
2019-05-09T03:22:05.101Z,1.37
2019-05-09T03:24:32.759Z,1.30
2019-05-09T03:27:02.231Z,1.40
2019-05-09T03:29:31.670Z,1.17
2019-05-09T03:32:00.288Z,1.10
2019-05-09T03:34:30.060Z,1.63
2019-05-09T03:36:58.149Z,1.33
2019-05-09T03:39:27.627Z,1.07
2019-05-09T03:41:57.387Z,1.37
2019-05-09T03:44:24.930Z,1.87
2019-05-09T03:47:12.658Z,0.73
2019-05-09T03:49:40.530Z,1.03
2019-05-09T03:52:08.285Z,1.00
2019-05-09T03:54:37.501Z,0.87
2019-05-09T03:57:22.567Z,1.33
2019-05-09T03:59:50.321Z,1.10
2019-05-09T04:02:18.201Z,0.70
2019-05-09T04:04:47.525Z,1.43
2019-05-09T04:07:15.582Z,1.03
2019-05-09T04:09:43.346Z,1.40
2019-05-09T04:12:11.052Z,1.63
2019-05-09T04:14:38.976Z,0.77
2019-05-09T04:17:07.825Z,1.10
2019-05-09T04:19:35.843Z,0.90
2019-05-09T04:22:03.602Z,1.07
2019-05-09T04:24:31.578Z,1.20
2019-05-09T04:27:01.077Z,0.80
2019-05-09T04:29:28.858Z,1.27
2019-05-09T04:31:57.480Z,1.60
2019-05-09T04:34:27.523Z,0.80
2019-05-09T04:36:55.014Z,1.93
2019-05-09T04:39:23.823Z,0.93
2019-05-09T04:41:54.954Z,1.00
2019-05-09T04:44:22.808Z,0.77
2019-05-09T04:46:54.142Z,0.40
2019-05-09T04:49:20.095Z,0.83
2019-05-09T04:51:48.075Z,0.70
2019-05-09T04:54:17.751Z,0.80
2019-05-09T04:56:47.385Z,0.50
2019-05-09T04:59:14.742Z,0.60
2019-05-09T05:01:44.146Z,0.90
2019-05-09T05:04:12.107Z,1.03
2019-05-09T05:06:40.555Z,0.30
2019-05-09T05:09:09.390Z,0.40
2019-05-09T05:11:38.326Z,0.93
2019-05-09T05:14:09.061Z,0.40
2019-05-09T05:16:39.104Z,0.80
2019-05-09T05:19:07.400Z,0.77
2019-05-09T05:21:34.575Z,0.70
2019-05-09T05:24:03.875Z,0.70
2019-05-09T05:26:31.728Z,0.50
2019-05-09T05:28:59.495Z,0.67
2019-05-09T05:31:28.582Z,0.80
2019-05-09T05:33:58.104Z,0.97
2019-05-09T05:36:28.004Z,0.83
2019-05-09T05:38:58.300Z,0.70
2019-05-09T05:41:25.295Z,0.60
2019-05-09T05:43:53.578Z,1.07
2019-05-09T05:46:34.962Z,0.50
2019-05-09T05:49:02.708Z,0.90
2019-05-09T05:51:32.130Z,0.80
2019-05-09T05:54:01.499Z,0.77
2019-05-09T05:56:29.313Z,0.77
2019-05-09T05:58:58.066Z,1.03
2019-05-09T06:01:27.893Z,1.30
2019-05-09T06:03:55.564Z,0.50
2019-05-09T06:06:23.438Z,0.97
2019-05-09T06:08:51.403Z,0.87
2019-05-09T06:11:19.273Z,1.20
2019-05-09T06:13:56.994Z,0.43
2019-05-09T06:16:18.227Z,0.80
2019-05-09T06:18:47.538Z,1.27
2019-05-09T06:21:17.581Z,0.67
2019-05-09T06:23:44.862Z,0.73
2019-05-09T06:26:12.717Z,1.07
2019-05-09T06:28:40.591Z,0.63
2019-05-09T06:31:08.348Z,1.20
2019-05-09T06:33:44.986Z,0.67
2019-05-09T06:36:07.812Z,1.33
2019-05-09T06:38:34.936Z,0.40
2019-05-09T06:41:02.802Z,1.00
2019-05-09T06:43:35.069Z,1.57
2019-05-09T06:46:04.366Z,0.50
2019-05-09T06:48:32.337Z,0.80
2019-05-09T06:51:00.211Z,0.60
2019-05-09T06:53:27.978Z,0.73
2019-05-09T06:55:57.788Z,1.73
2019-05-09T06:58:31.092Z,0.63
2019-05-09T07:01:18.070Z,0.70
2019-05-09T07:03:58.676Z,0.40
2019-05-09T07:06:34.232Z,0.60
2019-05-09T07:09:03.517Z,0.60
2019-05-09T07:11:31.293Z,0.73
2019-05-09T07:13:59.168Z,1.17
2019-05-09T07:16:27.654Z,0.90
2019-05-09T07:18:57.757Z,0.70
2019-05-09T07:21:28.606Z,0.40
2019-05-09T07:23:58.065Z,0.90
2019-05-09T07:26:28.126Z,1.00
2019-05-09T07:28:56.098Z,1.43
2019-05-09T07:31:25.407Z,0.67
2019-05-09T07:34:03.607Z,0.90
2019-05-09T07:36:31.383Z,0.30
2019-05-09T07:38:59.245Z,0.60
2019-05-09T07:41:28.243Z,0.67
2019-05-09T07:43:58.306Z,0.63
2019-05-09T07:46:28.572Z,0.80
2019-05-09T07:48:57.910Z,0.63
2019-05-09T07:51:27.517Z,0.93
2019-05-09T07:53:55.267Z,0.40
2019-05-09T07:56:23.034Z,0.83
2019-05-09T07:58:50.784Z,0.47
2019-05-09T08:01:19.202Z,0.50
2019-05-09T08:03:49.014Z,0.40
2019-05-09T08:06:18.309Z,0.73
2019-05-09T08:08:47.660Z,1.03
2019-05-09T08:11:17.801Z,1.30
2019-05-09T08:13:44.767Z,1.07
2019-05-09T08:16:14.766Z,1.67
2019-05-09T08:18:42.034Z,1.53
2019-05-09T08:21:09.688Z,1.17
2019-05-09T08:23:38.114Z,1.33
2019-05-09T08:26:08.493Z,0.93
2019-05-09T08:28:35.244Z,0.77
2019-05-09T08:31:02.973Z,0.80
2019-05-09T08:33:30.682Z,0.93
2019-05-09T08:35:58.692Z,0.80
2019-05-09T08:38:28.190Z,0.93
2019-05-09T08:41:09.271Z,0.37
2019-05-09T08:43:38.735Z,0.80
2019-05-09T08:46:07.835Z,1.60
2019-05-09T08:48:37.798Z,0.60
2019-05-09T08:51:08.870Z,1.23
2019-05-09T08:53:38.097Z,0.47
2019-05-09T08:56:05.563Z,0.73
2019-05-09T08:58:33.430Z,1.47
2019-05-09T09:01:03.768Z,0.60
2019-05-09T09:03:30.585Z,1.40
2019-05-09T09:05:58.348Z,0.77
2019-05-09T09:08:28.353Z,1.30
2019-05-09T09:10:57.674Z,1.97
2019-05-09T09:13:25.038Z,1.17
2019-05-09T09:16:08.647Z,1.43
2019-05-09T09:18:22.300Z,0.83
2019-05-09T09:20:50.083Z,0.43
2019-05-09T09:23:18.194Z,1.37
2019-05-09T09:25:48.358Z,0.70
2019-05-09T09:28:15.426Z,1.23
2019-05-09T09:30:43.287Z,1.13
2019-05-09T09:33:13.850Z,0.87
2019-05-09T09:35:40.344Z,1.07
2019-05-09T09:38:09.422Z,0.60
2019-05-09T09:40:38.558Z,0.80
2019-05-09T09:43:09.189Z,0.80
2019-05-09T09:45:37.792Z,1.20
2019-05-09T09:48:05.271Z,0.97
2019-05-09T09:50:32.986Z,1.27
2019-05-09T09:53:00.766Z,0.90
2019-05-09T09:55:28.524Z,1.27
2019-05-09T09:57:57.853Z,0.57
2019-05-09T10:00:44.127Z,0.80
2019-05-09T10:03:11.999Z,1.10
2019-05-09T10:05:39.759Z,1.57
2019-05-09T10:08:10.302Z,0.90
2019-05-09T10:10:37.347Z,0.67
2019-05-09T10:13:10.446Z,1.03
2019-05-09T10:15:39.634Z,0.63
2019-05-09T10:18:08.925Z,0.70
2019-05-09T10:20:44.274Z,0.27
2019-05-09T10:23:18.181Z,1.03
2019-05-09T10:25:41.558Z,0.77
2019-05-09T10:28:09.425Z,0.60
2019-05-09T10:30:38.227Z,0.40
2019-05-09T10:33:08.937Z,0.40
2019-05-09T10:35:35.681Z,0.57
2019-05-09T10:38:03.449Z,0.70
2019-05-09T10:40:31.313Z,0.80
2019-05-09T10:43:03.377Z,0.43
2019-05-09T10:45:44.693Z,0.50
2019-05-09T10:48:12.452Z,0.80
2019-05-09T10:50:44.385Z,0.70
2019-05-09T10:53:09.596Z,0.50
2019-05-09T10:55:38.554Z,0.60
2019-05-09T10:58:08.102Z,0.37
2019-05-09T11:00:39.411Z,1.20
2019-05-09T11:03:05.590Z,0.80
2019-05-09T11:05:33.344Z,0.30
2019-05-09T11:08:01.108Z,0.83
2019-05-09T11:10:32.488Z,0.50
2019-05-09T11:12:58.575Z,0.83
2019-05-09T11:15:26.373Z,0.47
2019-05-09T11:17:54.124Z,0.93
2019-05-09T11:20:21.902Z,0.57
2019-05-09T11:22:49.667Z,0.50
2019-05-09T11:25:17.524Z,0.37
2019-05-09T11:27:45.393Z,0.30
2019-05-09T11:30:13.263Z,0.43
2019-05-09T11:32:41.236Z,0.30
2019-05-09T11:35:09.203Z,0.30
2019-05-09T11:37:38.340Z,0.63
2019-05-09T11:40:06.498Z,0.30
2019-05-09T11:42:34.234Z,0.60
2019-05-09T11:45:02.000Z,0.57
2019-05-09T11:47:39.513Z,0.80
2019-05-09T11:50:01.144Z,0.50
2019-05-09T11:52:29.107Z,1.20
2019-05-09T11:54:58.002Z,0.80
2019-05-09T11:57:28.679Z,0.60
2019-05-09T11:59:57.714Z,0.53
2019-05-09T12:02:24.867Z,0.80
2019-05-09T12:04:52.625Z,0.67
2019-05-09T12:07:20.410Z,0.73
2019-05-09T12:09:48.928Z,1.10
2019-05-09T12:12:19.318Z,0.80
2019-05-09T12:14:48.365Z,0.37
2019-05-09T12:17:19.275Z,1.10
2019-05-09T12:19:45.480Z,0.80
2019-05-09T12:22:13.450Z,1.47
2019-05-09T12:24:41.305Z,0.97
2019-05-09T12:27:09.072Z,0.93
2019-05-09T12:29:38.728Z,1.00
2019-05-09T12:32:08.889Z,1.07
2019-05-09T12:34:35.972Z,1.73
2019-05-09T12:37:03.835Z,3.30
2019-05-09T12:39:31.697Z,4.47
2019-05-09T12:41:59.566Z,3.40
2019-05-09T12:44:28.782Z,1.63
2019-05-09T12:46:58.181Z,7.03
2019-05-09T12:49:28.185Z,4.20
2019-05-09T12:51:57.604Z,2.33
2019-05-09T12:54:24.941Z,1.40
2019-05-09T12:56:52.819Z,0.43
2019-05-09T12:59:20.479Z,2.37
2019-05-09T13:01:49.189Z,1.83
2019-05-09T13:04:17.235Z,1.23
2019-05-09T13:06:45.110Z,1.70
2019-05-09T13:09:12.985Z,1.10
2019-05-09T13:11:40.852Z,1.07
2019-05-09T13:14:10.091Z,1.10
2019-05-09T13:16:57.685Z,1.13
2019-05-09T13:19:27.886Z,1.37
2019-05-09T13:21:58.569Z,1.23
2019-05-09T13:24:25.583Z,1.37
2019-05-09T13:26:53.290Z,1.20
2019-05-09T13:29:21.223Z,1.47
2019-05-09T13:31:48.980Z,1.70
2019-05-09T13:34:18.843Z,1.30
2019-05-09T13:36:48.791Z,0.80
2019-05-09T13:39:17.779Z,0.90
2019-05-09T13:41:47.405Z,1.30
2019-05-09T13:44:14.686Z,1.70
2019-05-09T13:46:42.443Z,1.00
2019-05-09T13:49:14.860Z,1.40
2019-05-09T13:51:48.632Z,0.80
2019-05-09T13:54:09.027Z,0.87
2019-05-09T13:56:36.786Z,2.60
2019-05-09T13:59:04.751Z,1.70
2019-05-09T14:01:32.508Z,1.30
2019-05-09T14:04:00.655Z,2.43
2019-05-09T14:06:28.481Z,1.87
2019-05-09T14:08:59.464Z,0.90
2019-05-09T14:11:25.623Z,2.20
2019-05-09T14:13:53.938Z,1.90
2019-05-09T14:16:22.536Z,2.13
2019-05-09T14:18:50.389Z,1.30
2019-05-09T14:21:21.565Z,2.03
2019-05-09T14:24:00.826Z,1.80
2019-05-09T14:26:18.082Z,2.13
2019-05-09T14:28:48.881Z,2.43
2019-05-09T14:31:15.497Z,2.00
2019-05-09T14:33:43.418Z,1.93
2019-05-09T14:36:11.287Z,1.43
2019-05-09T14:38:39.316Z,1.30
2019-05-09T14:41:07.818Z,1.20
2019-05-09T14:43:39.215Z,2.10
2019-05-09T14:46:08.002Z,2.27
2019-05-09T14:48:35.029Z,1.63
2019-05-09T14:51:02.999Z,2.63
2019-05-09T14:53:30.749Z,3.20
2019-05-09T14:55:58.910Z,2.17
2019-05-09T14:58:28.784Z,2.63
2019-05-09T15:00:59.398Z,1.23
2019-05-09T15:03:27.722Z,1.87
2019-05-09T15:05:57.255Z,1.50
2019-05-09T15:08:24.627Z,3.40
2019-05-09T15:10:52.384Z,1.07
2019-05-09T15:13:20.162Z,2.20
2019-05-09T15:15:48.112Z,1.83
2019-05-09T15:18:17.622Z,0.83
2019-05-09T15:20:47.810Z,1.57
2019-05-09T15:23:14.915Z,1.90
2019-05-09T15:25:42.679Z,2.57
2019-05-09T15:28:10.537Z,1.73
2019-05-09T15:30:38.611Z,2.03
2019-05-09T15:33:08.368Z,1.17
2019-05-09T15:35:35.754Z,1.33
2019-05-09T15:38:03.625Z,1.20
2019-05-09T15:40:31.624Z,1.90
2019-05-09T15:42:59.595Z,2.17
2019-05-09T15:45:29.002Z,3.20
2019-05-09T15:47:58.296Z,1.97
2019-05-09T15:50:27.861Z,2.13
2019-05-09T15:52:58.017Z,1.00
2019-05-09T15:55:25.112Z,1.77
2019-05-09T15:57:52.845Z,1.70
2019-05-09T16:00:20.565Z,1.90
2019-05-09T16:02:48.635Z,1.70
2019-05-09T16:05:18.047Z,1.07
2019-05-09T16:07:48.052Z,1.67
2019-05-09T16:10:17.673Z,1.63
2019-05-09T16:12:45.007Z,1.57
2019-05-09T16:15:13.068Z,1.57
2019-05-09T16:17:40.912Z,0.90
2019-05-09T16:20:08.694Z,1.70
2019-05-09T16:22:38.893Z,1.73
2019-05-09T16:25:06.612Z,1.20
2019-05-09T16:27:34.535Z,0.97
2019-05-09T16:30:02.308Z,0.73
2019-05-09T16:32:30.068Z,0.93
2019-05-09T16:34:57.717Z,1.87
2019-05-09T16:37:28.214Z,1.13
2019-05-09T16:39:55.000Z,1.10
2019-05-09T16:42:22.866Z,0.90
2019-05-09T16:44:50.644Z,1.20
2019-05-09T16:47:21.549Z,1.50
2019-05-09T16:49:47.842Z,0.80
2019-05-09T16:52:17.852Z,1.73
2019-05-09T16:54:49.806Z,2.43
2019-05-09T16:57:18.090Z,1.93
2019-05-09T16:59:47.726Z,1.10
2019-05-09T17:02:21.409Z,0.87
2019-05-09T17:04:44.338Z,1.77
2019-05-09T17:07:11.995Z,1.40
2019-05-09T17:09:41.304Z,0.93
2019-05-09T17:12:09.173Z,2.33
2019-05-09T17:14:37.037Z,1.87
2019-05-09T17:17:04.794Z,1.33
2019-05-09T17:19:32.494Z,1.80
2019-05-09T17:22:01.774Z,1.77
2019-05-09T17:24:29.917Z,1.53
2019-05-09T17:26:58.107Z,1.00
2019-05-09T17:29:28.048Z,0.77
2019-05-09T17:31:58.195Z,1.20
2019-05-09T17:34:24.887Z,2.03
2019-05-09T17:36:52.602Z,0.93
2019-05-09T17:39:20.434Z,0.90
2019-05-09T17:41:48.299Z,1.60
2019-05-09T17:44:18.442Z,0.93
2019-05-09T17:46:47.834Z,1.20
2019-05-09T17:49:14.878Z,1.20
2019-05-09T17:51:42.642Z,1.83
2019-05-09T17:54:10.295Z,1.33
2019-05-09T17:56:38.169Z,1.23
2019-05-09T17:59:08.332Z,1.20
2019-05-09T18:01:35.347Z,0.73
2019-05-09T18:04:03.101Z,2.27
2019-05-09T18:06:30.746Z,0.70
2019-05-09T18:08:58.430Z,2.37
2019-05-09T18:11:26.292Z,1.13
2019-05-09T18:13:54.174Z,1.83
2019-05-09T18:16:21.950Z,1.87
2019-05-09T18:18:50.000Z,2.67
2019-05-09T18:21:17.907Z,3.27
2019-05-09T18:23:47.298Z,2.77
2019-05-09T18:26:15.044Z,2.40
2019-05-09T18:28:42.800Z,2.60
2019-05-09T18:31:10.575Z,3.90
2019-05-09T18:33:43.153Z,2.23
2019-05-09T18:36:11.025Z,3.90
2019-05-09T18:38:38.930Z,3.17
2019-05-09T18:41:09.492Z,4.00
2019-05-09T18:43:36.054Z,3.37
2019-05-09T18:46:03.847Z,2.77
2019-05-09T18:48:31.585Z,2.83
2019-05-09T18:50:59.355Z,2.70
2019-05-09T18:53:27.138Z,2.00
2019-05-09T18:55:54.966Z,2.80
2019-05-09T18:58:22.649Z,1.53
2019-05-09T19:00:50.816Z,2.30
2019-05-09T19:03:18.704Z,2.23
2019-05-09T19:05:46.469Z,3.47
2019-05-09T19:08:14.230Z,3.50
2019-05-09T19:10:42.099Z,3.80
2019-05-09T19:13:09.967Z,4.40
2019-05-09T19:15:39.378Z,2.77
2019-05-09T19:18:17.589Z,2.97
2019-05-09T19:20:49.762Z,3.80
2019-05-09T19:23:17.526Z,5.63
2019-05-09T19:25:45.279Z,5.13
2019-05-09T19:28:13.156Z,5.23
2019-05-09T19:30:41.024Z,4.03
2019-05-09T19:33:08.799Z,3.17
2019-05-09T19:35:36.573Z,4.30
2019-05-09T19:38:04.622Z,4.63
2019-05-09T19:40:32.284Z,4.50
2019-05-09T19:43:00.561Z,4.33
2019-05-09T19:45:28.347Z,2.83
2019-05-09T19:47:56.302Z,4.87
2019-05-09T19:50:24.018Z,3.93
2019-05-09T19:52:51.749Z,3.37
2019-05-09T19:55:19.446Z,4.40
2019-05-09T19:57:47.178Z,4.10
2019-05-09T20:00:16.778Z,3.67
2019-05-09T20:02:44.547Z,3.03
2019-05-09T20:05:13.077Z,4.53
2019-05-09T20:07:40.899Z,3.23
2019-05-09T20:10:10.264Z,3.47
2019-05-09T20:12:39.709Z,4.80
2019-05-09T20:15:07.866Z,2.93
2019-05-09T20:17:35.651Z,4.13
2019-05-09T20:20:03.931Z,3.33
2019-05-09T20:22:31.912Z,3.67
2019-05-09T20:24:59.884Z,4.63
2019-05-09T20:27:27.725Z,3.00
2019-05-09T20:29:55.634Z,5.67
2019-05-09T20:32:23.580Z,3.73
2019-05-09T20:34:51.440Z,4.47
2019-05-09T20:37:19.193Z,4.93
2019-05-09T20:39:47.066Z,4.60
2019-05-09T20:42:15.248Z,3.73
2019-05-09T20:44:43.416Z,4.17
2019-05-09T20:47:11.286Z,4.43
2019-05-09T20:49:39.364Z,3.37
2019-05-09T20:52:07.534Z,4.60
2019-05-09T20:54:35.441Z,3.03
2019-05-09T20:57:03.468Z,3.53
2019-05-09T20:59:31.459Z,3.10
2019-05-09T21:01:59.309Z,4.40
2019-05-09T21:04:27.294Z,4.07
2019-05-09T21:06:55.556Z,3.77
2019-05-09T21:09:23.534Z,4.47
2019-05-09T21:11:51.418Z,5.73
2019-05-09T21:14:19.476Z,5.43
2019-05-09T21:16:47.661Z,5.53
2019-05-09T21:19:15.729Z,6.50
2019-05-09T21:21:43.798Z,5.70
2019-05-09T21:24:11.977Z,4.77
2019-05-09T21:26:39.948Z,7.00
2019-05-09T21:29:07.943Z,5.47
2019-05-09T21:31:35.899Z,6.47
2019-05-09T21:34:03.855Z,5.13
2019-05-09T21:36:31.554Z,5.50
2019-05-09T21:38:59.416Z,3.93
2019-05-09T21:41:27.255Z,6.20
2019-05-09T21:43:55.125Z,6.23
2019-05-09T21:46:22.995Z,5.70
2019-05-09T21:48:50.860Z,5.63
2019-05-09T21:51:18.637Z,3.83
2019-05-09T21:53:46.614Z,4.23
2019-05-09T21:56:14.572Z,5.73
2019-05-09T21:58:42.554Z,5.30
2019-05-09T22:01:12.124Z,7.47
2019-05-09T22:03:40.015Z,8.60
2019-05-09T22:06:07.875Z,5.77
2019-05-09T22:08:35.641Z,4.27
2019-05-09T22:11:03.411Z,4.33
2019-05-09T22:13:31.186Z,6.17
2019-05-09T22:15:59.054Z,5.50
2019-05-09T22:18:26.923Z,6.07
2019-05-09T22:20:54.736Z,6.50
2019-05-09T22:23:22.450Z,4.83
2019-05-09T22:25:50.135Z,5.70
2019-05-09T22:28:17.989Z,3.93
2019-05-09T22:30:45.686Z,6.30
2019-05-09T22:33:13.338Z,4.30
2019-05-09T22:35:41.187Z,5.90
2019-05-09T22:38:08.947Z,5.17
2019-05-09T22:40:36.601Z,6.60
2019-05-09T22:43:04.364Z,6.50
2019-05-09T22:45:32.238Z,5.47
2019-05-09T22:48:00.114Z,7.47
2019-05-09T22:50:27.989Z,5.30
2019-05-09T22:52:55.736Z,5.43
2019-05-09T22:55:23.509Z,4.53
2019-05-09T22:57:51.382Z,4.30
2019-05-09T23:00:19.254Z,5.97
2019-05-09T23:02:47.113Z,6.83
2019-05-09T23:05:14.890Z,4.77
2019-05-09T23:07:42.748Z,6.00
2019-05-09T23:10:10.517Z,4.67
2019-05-09T23:12:38.484Z,5.17
2019-05-09T23:15:07.791Z,5.23
2019-05-09T23:17:35.659Z,4.80
2019-05-09T23:20:05.753Z,5.23
2019-05-09T23:22:33.550Z,5.53
2019-05-09T23:25:01.302Z,4.93
2019-05-09T23:27:29.072Z,5.63
2019-05-09T23:29:56.838Z,5.33
2019-05-09T23:32:26.151Z,4.70
2019-05-09T23:34:54.219Z,7.07
2019-05-09T23:37:21.984Z,4.90
2019-05-09T23:39:51.275Z,4.20
2019-05-09T23:42:19.158Z,6.20
2019-05-09T23:44:46.909Z,4.63
2019-05-09T23:47:14.681Z,6.43
2019-05-09T23:49:42.544Z,6.30
2019-05-09T23:52:10.334Z,5.27
2019-05-09T23:54:55.894Z,4.40
2019-05-09T23:57:41.273Z,3.53
